Koleen, Indiana
Current Conditions -  °F | °C
As of 10:11 AM on Saturday 20 Dec 2014 (Local Time) from KBMG Reporting Station
Haze Haze  
Wind Chill: 30°   Ceiling: 1000
Heat Index: 30°   Visibility: 5mi
Dew Point: 27°   Wind: 3mph
Humidity: 88%   Direction: 30°NNE
Pressure: 30.29"   Gusts: NA
Location:  38.97°N, 86.83°W
Report Text: KBMG 201511Z 03003KT 5SM BR OVC010 M01/M03 A3029 RMK AO2 T10111028
Loading
Personal Weather Stations






























Interactive Weather Map New forecast layout! Learn more

10-Day Weather Forecast

Advertisements
Track Severe Weather on mobile